sensor_id;sensor_type;location;lat;lon;timestamp;P1;durP1;ratioP1;P2;durP2;ratioP2
32505;SDS011;18955;51.224;8.482;2023-07-09T00:02:18;10.20;;;4.90;;
32505;SDS011;18955;51.224;8.482;2023-07-09T00:04:44;11.07;;;5.30;;
32505;SDS011;18955;51.224;8.482;2023-07-09T00:09:57;10.80;;;5.18;;
32505;SDS011;18955;51.224;8.482;2023-07-09T00:12:24;8.45;;;5.20;;
32505;SDS011;18955;51.224;8.482;2023-07-09T00:14:51;9.40;;;5.55;;
32505;SDS011;18955;51.224;8.482;2023-07-09T00:17:27;8.65;;;5.38;;
32505;SDS011;18955;51.224;8.482;2023-07-09T00:19:59;9.60;;;4.85;;
32505;SDS011;18955;51.224;8.482;2023-07-09T00:26:13;8.52;;;5.05;;
32505;SDS011;18955;51.224;8.482;2023-07-09T00:28:41;12.05;;;5.50;;
32505;SDS011;18955;51.224;8.482;2023-07-09T00:31:10;9.57;;;5.18;;
32505;SDS011;18955;51.224;8.482;2023-07-09T00:33:40;8.35;;;5.15;;
32505;SDS011;18955;51.224;8.482;2023-07-09T00:36:14;9.20;;;4.97;;
32505;SDS011;18955;51.224;8.482;2023-07-09T00:38:43;10.48;;;5.00;;
32505;SDS011;18955;51.224;8.482;2023-07-09T00:41:14;9.27;;;4.95;;
32505;SDS011;18955;51.224;8.482;2023-07-09T00:43:43;9.88;;;5.45;;
32505;SDS011;18955;51.224;8.482;2023-07-09T00:48:43;9.05;;;4.72;;
32505;SDS011;18955;51.224;8.482;2023-07-09T00:51:12;10.20;;;4.75;;
32505;SDS011;18955;51.224;8.482;2023-07-09T00:53:42;11.73;;;5.18;;
32505;SDS011;18955;51.224;8.482;2023-07-09T00:56:15;10.15;;;4.93;;
32505;SDS011;18955;51.224;8.482;2023-07-09T00:58:46;10.38;;;4.63;;
32505;SDS011;18955;51.224;8.482;2023-07-09T01:01:14;10.23;;;5.30;;
32505;SDS011;18955;51.224;8.482;2023-07-09T01:03:48;9.88;;;4.72;;
32505;SDS011;18955;51.224;8.482;2023-07-09T01:06:24;15.40;;;4.95;;
32505;SDS011;18955;51.224;8.482;2023-07-09T01:08:58;6.85;;;4.38;;
32505;SDS011;18955;51.224;8.482;2023-07-09T01:11:26;8.48;;;4.80;;
32505;SDS011;18955;51.224;8.482;2023-07-09T01:13:54;7.95;;;4.47;;
32505;SDS011;18955;51.224;8.482;2023-07-09T01:16:27;10.10;;;4.90;;
32505;SDS011;18955;51.224;8.482;2023-07-09T01:18:57;9.15;;;5.13;;
32505;SDS011;18955;51.224;8.482;2023-07-09T01:21:23;7.45;;;4.40;;
32505;SDS011;18955;51.224;8.482;2023-07-09T01:23:50;8.43;;;4.90;;
32505;SDS011;18955;51.224;8.482;2023-07-09T01:26:19;7.20;;;4.82;;
32505;SDS011;18955;51.224;8.482;2023-07-09T01:28:50;9.50;;;4.85;;
32505;SDS011;18955;51.224;8.482;2023-07-09T01:31:18;7.35;;;4.40;;
32505;SDS011;18955;51.224;8.482;2023-07-09T01:33:46;10.18;;;4.85;;
32505;SDS011;18955;51.224;8.482;2023-07-09T01:36:13;10.77;;;4.88;;
32505;SDS011;18955;51.224;8.482;2023-07-09T01:38:46;12.05;;;4.93;;
32505;SDS011;18955;51.224;8.482;2023-07-09T01:41:13;8.05;;;4.75;;
32505;SDS011;18955;51.224;8.482;2023-07-09T01:43:39;7.47;;;4.60;;
32505;SDS011;18955;51.224;8.482;2023-07-09T01:46:10;7.93;;;4.35;;
32505;SDS011;18955;51.224;8.482;2023-07-09T01:48:38;6.70;;;3.92;;
32505;SDS011;18955;51.224;8.482;2023-07-09T01:51:09;6.38;;;4.53;;
32505;SDS011;18955;51.224;8.482;2023-07-09T01:53:37;7.95;;;4.25;;
32505;SDS011;18955;51.224;8.482;2023-07-09T01:56:07;10.32;;;4.10;;
32505;SDS011;18955;51.224;8.482;2023-07-09T01:58:33;10.48;;;4.95;;
32505;SDS011;18955;51.224;8.482;2023-07-09T02:01:00;8.02;;;4.50;;
32505;SDS011;18955;51.224;8.482;2023-07-09T02:03:26;10.13;;;4.45;;
32505;SDS011;18955;51.224;8.482;2023-07-09T02:05:53;6.88;;;3.55;;
32505;SDS011;18955;51.224;8.482;2023-07-09T02:08:21;13.07;;;4.65;;
32505;SDS011;18955;51.224;8.482;2023-07-09T02:10:48;10.63;;;5.30;;
32505;SDS011;18955;51.224;8.482;2023-07-09T02:13:15;8.93;;;4.75;;
32505;SDS011;18955;51.224;8.482;2023-07-09T02:15:42;7.03;;;4.22;;
32505;SDS011;18955;51.224;8.482;2023-07-09T02:18:11;7.20;;;4.57;;
32505;SDS011;18955;51.224;8.482;2023-07-09T02:20:37;9.85;;;4.80;;
32505;SDS011;18955;51.224;8.482;2023-07-09T02:23:06;7.75;;;4.63;;
32505;SDS011;18955;51.224;8.482;2023-07-09T02:25:33;6.38;;;4.03;;
32505;SDS011;18955;51.224;8.482;2023-07-09T02:28:00;6.93;;;4.68;;
32505;SDS011;18955;51.224;8.482;2023-07-09T02:30:26;8.82;;;4.38;;
32505;SDS011;18955;51.224;8.482;2023-07-09T02:32:52;7.95;;;4.25;;
32505;SDS011;18955;51.224;8.482;2023-07-09T02:35:23;8.35;;;4.53;;
32505;SDS011;18955;51.224;8.482;2023-07-09T02:37:49;8.82;;;4.32;;
32505;SDS011;18955;51.224;8.482;2023-07-09T02:40:15;7.93;;;4.10;;
32505;SDS011;18955;51.224;8.482;2023-07-09T02:42:42;5.82;;;4.47;;
32505;SDS011;18955;51.224;8.482;2023-07-09T02:45:08;7.70;;;4.00;;
32505;SDS011;18955;51.224;8.482;2023-07-09T02:47:36;6.50;;;4.35;;
32505;SDS011;18955;51.224;8.482;2023-07-09T02:50:02;8.65;;;4.10;;
32505;SDS011;18955;51.224;8.482;2023-07-09T02:54:55;8.90;;;4.43;;
32505;SDS011;18955;51.224;8.482;2023-07-09T02:57:21;7.30;;;4.32;;
32505;SDS011;18955;51.224;8.482;2023-07-09T02:59:48;7.07;;;3.88;;
32505;SDS011;18955;51.224;8.482;2023-07-09T03:02:14;5.90;;;3.78;;
32505;SDS011;18955;51.224;8.482;2023-07-09T03:04:40;8.85;;;4.50;;
32505;SDS011;18955;51.224;8.482;2023-07-09T03:07:06;6.05;;;3.90;;
32505;SDS011;18955;51.224;8.482;2023-07-09T03:09:33;12.23;;;4.40;;
32505;SDS011;18955;51.224;8.482;2023-07-09T03:11:59;4.97;;;2.78;;
32505;SDS011;18955;51.224;8.482;2023-07-09T03:14:25;8.45;;;4.47;;
32505;SDS011;18955;51.224;8.482;2023-07-09T03:16:51;6.18;;;4.45;;
32505;SDS011;18955;51.224;8.482;2023-07-09T03:19:18;7.38;;;4.60;;
32505;SDS011;18955;51.224;8.482;2023-07-09T03:21:44;9.98;;;4.85;;
32505;SDS011;18955;51.224;8.482;2023-07-09T03:24:10;9.85;;;5.03;;
32505;SDS011;18955;51.224;8.482;2023-07-09T03:26:36;10.30;;;4.47;;
32505;SDS011;18955;51.224;8.482;2023-07-09T03:29:03;7.82;;;4.65;;
32505;SDS011;18955;51.224;8.482;2023-07-09T03:31:29;7.78;;;4.10;;
32505;SDS011;18955;51.224;8.482;2023-07-09T03:33:56;7.55;;;4.57;;
32505;SDS011;18955;51.224;8.482;2023-07-09T03:36:22;8.60;;;4.45;;
32505;SDS011;18955;51.224;8.482;2023-07-09T03:38:48;6.72;;;4.30;;
32505;SDS011;18955;51.224;8.482;2023-07-09T03:41:15;7.88;;;4.72;;
32505;SDS011;18955;51.224;8.482;2023-07-09T03:43:41;7.32;;;4.32;;
32505;SDS011;18955;51.224;8.482;2023-07-09T03:46:07;5.07;;;3.13;;
32505;SDS011;18955;51.224;8.482;2023-07-09T03:48:33;7.35;;;4.55;;
32505;SDS011;18955;51.224;8.482;2023-07-09T03:51:00;7.22;;;4.10;;
32505;SDS011;18955;51.224;8.482;2023-07-09T03:53:26;9.98;;;4.70;;
32505;SDS011;18955;51.224;8.482;2023-07-09T03:55:53;9.52;;;3.92;;
32505;SDS011;18955;51.224;8.482;2023-07-09T03:58:20;16.23;;;5.10;;
32505;SDS011;18955;51.224;8.482;2023-07-09T04:03:13;7.88;;;4.53;;
32505;SDS011;18955;51.224;8.482;2023-07-09T04:05:39;11.90;;;5.20;;
32505;SDS011;18955;51.224;8.482;2023-07-09T04:08:06;6.65;;;4.22;;
32505;SDS011;18955;51.224;8.482;2023-07-09T04:10:32;9.02;;;4.55;;
32505;SDS011;18955;51.224;8.482;2023-07-09T04:12:58;7.25;;;4.22;;
32505;SDS011;18955;51.224;8.482;2023-07-09T04:15:24;8.48;;;4.50;;
32505;SDS011;18955;51.224;8.482;2023-07-09T04:17:51;8.32;;;4.80;;
32505;SDS011;18955;51.224;8.482;2023-07-09T04:20:17;6.50;;;4.13;;
32505;SDS011;18955;51.224;8.482;2023-07-09T04:25:10;8.40;;;4.60;;
32505;SDS011;18955;51.224;8.482;2023-07-09T04:27:37;12.30;;;5.35;;
32505;SDS011;18955;51.224;8.482;2023-07-09T04:30:05;7.93;;;4.45;;
32505;SDS011;18955;51.224;8.482;2023-07-09T04:32:34;8.05;;;4.97;;
32505;SDS011;18955;51.224;8.482;2023-07-09T04:35:02;13.30;;;4.70;;
32505;SDS011;18955;51.224;8.482;2023-07-09T04:37:32;8.93;;;4.80;;
32505;SDS011;18955;51.224;8.482;2023-07-09T04:39:58;6.75;;;4.43;;
32505;SDS011;18955;51.224;8.482;2023-07-09T04:42:25;7.65;;;4.75;;
32505;SDS011;18955;51.224;8.482;2023-07-09T04:44:51;8.80;;;5.30;;
32505;SDS011;18955;51.224;8.482;2023-07-09T04:47:17;9.90;;;4.75;;
32505;SDS011;18955;51.224;8.482;2023-07-09T04:49:43;10.20;;;4.78;;
32505;SDS011;18955;51.224;8.482;2023-07-09T04:52:09;8.20;;;4.97;;
32505;SDS011;18955;51.224;8.482;2023-07-09T04:54:40;7.75;;;4.43;;
32505;SDS011;18955;51.224;8.482;2023-07-09T04:57:09;7.28;;;5.30;;
32505;SDS011;18955;51.224;8.482;2023-07-09T04:59:36;7.28;;;4.75;;
32505;SDS011;18955;51.224;8.482;2023-07-09T05:02:02;8.48;;;5.18;;
32505;SDS011;18955;51.224;8.482;2023-07-09T05:04:29;8.15;;;5.20;;
32505;SDS011;18955;51.224;8.482;2023-07-09T05:06:57;7.80;;;4.60;;
32505;SDS011;18955;51.224;8.482;2023-07-09T05:09:24;13.23;;;5.53;;
32505;SDS011;18955;51.224;8.482;2023-07-09T05:11:50;8.98;;;4.75;;
32505;SDS011;18955;51.224;8.482;2023-07-09T05:14:17;8.10;;;4.72;;
32505;SDS011;18955;51.224;8.482;2023-07-09T05:16:43;7.65;;;5.00;;
32505;SDS011;18955;51.224;8.482;2023-07-09T05:19:11;8.82;;;4.60;;
32505;SDS011;18955;51.224;8.482;2023-07-09T05:21:37;7.38;;;5.03;;
32505;SDS011;18955;51.224;8.482;2023-07-09T05:24:04;8.80;;;5.25;;
32505;SDS011;18955;51.224;8.482;2023-07-09T05:26:30;8.45;;;4.70;;
32505;SDS011;18955;51.224;8.482;2023-07-09T05:28:57;11.63;;;5.18;;
32505;SDS011;18955;51.224;8.482;2023-07-09T05:31:23;8.30;;;4.88;;
32505;SDS011;18955;51.224;8.482;2023-07-09T05:33:49;6.70;;;3.78;;
32505;SDS011;18955;51.224;8.482;2023-07-09T05:36:15;7.10;;;4.93;;
32505;SDS011;18955;51.224;8.482;2023-07-09T05:38:42;12.68;;;5.70;;
32505;SDS011;18955;51.224;8.482;2023-07-09T05:41:09;12.32;;;5.20;;
32505;SDS011;18955;51.224;8.482;2023-07-09T05:43:35;8.15;;;5.30;;
32505;SDS011;18955;51.224;8.482;2023-07-09T05:46:02;10.30;;;5.20;;
32505;SDS011;18955;51.224;8.482;2023-07-09T05:48:30;9.48;;;5.45;;
32505;SDS011;18955;51.224;8.482;2023-07-09T05:50:57;10.23;;;5.50;;
32505;SDS011;18955;51.224;8.482;2023-07-09T05:53:23;11.77;;;5.47;;
32505;SDS011;18955;51.224;8.482;2023-07-09T05:55:52;10.93;;;5.60;;
32505;SDS011;18955;51.224;8.482;2023-07-09T05:58:19;11.88;;;5.88;;
32505;SDS011;18955;51.224;8.482;2023-07-09T06:00:46;9.50;;;6.00;;
32505;SDS011;18955;51.224;8.482;2023-07-09T06:03:22;8.57;;;5.55;;
32505;SDS011;18955;51.224;8.482;2023-07-09T06:05:50;9.38;;;5.05;;
32505;SDS011;18955;51.224;8.482;2023-07-09T06:08:18;9.40;;;5.10;;
32505;SDS011;18955;51.224;8.482;2023-07-09T06:10:57;12.35;;;5.53;;
32505;SDS011;18955;51.224;8.482;2023-07-09T06:13:26;9.70;;;5.72;;
32505;SDS011;18955;51.224;8.482;2023-07-09T06:15:54;10.52;;;5.20;;
32505;SDS011;18955;51.224;8.482;2023-07-09T06:18:21;9.25;;;5.15;;
32505;SDS011;18955;51.224;8.482;2023-07-09T06:20:49;7.78;;;4.68;;
32505;SDS011;18955;51.224;8.482;2023-07-09T06:23:17;11.60;;;5.85;;
32505;SDS011;18955;51.224;8.482;2023-07-09T06:25:44;8.38;;;5.47;;
32505;SDS011;18955;51.224;8.482;2023-07-09T06:28:16;8.25;;;5.10;;
32505;SDS011;18955;51.224;8.482;2023-07-09T06:30:44;6.65;;;4.72;;
32505;SDS011;18955;51.224;8.482;2023-07-09T06:33:12;11.65;;;4.80;;
32505;SDS011;18955;51.224;8.482;2023-07-09T06:35:45;10.98;;;5.80;;
32505;SDS011;18955;51.224;8.482;2023-07-09T06:38:13;13.88;;;5.85;;
32505;SDS011;18955;51.224;8.482;2023-07-09T06:40:39;10.73;;;4.78;;
32505;SDS011;18955;51.224;8.482;2023-07-09T06:43:05;9.57;;;3.90;;
32505;SDS011;18955;51.224;8.482;2023-07-09T06:45:37;8.88;;;5.43;;
32505;SDS011;18955;51.224;8.482;2023-07-09T06:48:04;11.88;;;5.80;;
32505;SDS011;18955;51.224;8.482;2023-07-09T06:50:34;12.88;;;5.20;;
32505;SDS011;18955;51.224;8.482;2023-07-09T06:53:00;10.45;;;5.63;;
32505;SDS011;18955;51.224;8.482;2023-07-09T06:55:26;7.32;;;5.10;;
32505;SDS011;18955;51.224;8.482;2023-07-09T06:57:53;7.65;;;4.88;;
32505;SDS011;18955;51.224;8.482;2023-07-09T07:00:19;11.93;;;5.70;;
32505;SDS011;18955;51.224;8.482;2023-07-09T07:02:45;9.82;;;5.60;;
32505;SDS011;18955;51.224;8.482;2023-07-09T07:05:11;7.65;;;3.85;;
32505;SDS011;18955;51.224;8.482;2023-07-09T07:07:37;9.10;;;5.68;;
32505;SDS011;18955;51.224;8.482;2023-07-09T07:10:04;9.65;;;5.80;;
32505;SDS011;18955;51.224;8.482;2023-07-09T07:12:40;9.20;;;5.28;;
32505;SDS011;18955;51.224;8.482;2023-07-09T07:15:10;11.48;;;6.10;;
32505;SDS011;18955;51.224;8.482;2023-07-09T07:17:39;10.45;;;5.55;;
32505;SDS011;18955;51.224;8.482;2023-07-09T07:20:05;12.15;;;5.80;;
32505;SDS011;18955;51.224;8.482;2023-07-09T07:22:32;10.48;;;5.50;;
32505;SDS011;18955;51.224;8.482;2023-07-09T07:24:59;10.98;;;5.80;;
32505;SDS011;18955;51.224;8.482;2023-07-09T07:27:25;11.68;;;4.85;;
32505;SDS011;18955;51.224;8.482;2023-07-09T07:29:51;11.18;;;6.18;;
32505;SDS011;18955;51.224;8.482;2023-07-09T07:32:17;8.57;;;5.35;;
32505;SDS011;18955;51.224;8.482;2023-07-09T07:34:44;9.77;;;6.13;;
32505;SDS011;18955;51.224;8.482;2023-07-09T07:37:11;9.32;;;6.10;;
32505;SDS011;18955;51.224;8.482;2023-07-09T07:39:37;12.40;;;5.80;;
32505;SDS011;18955;51.224;8.482;2023-07-09T07:42:04;14.65;;;5.68;;
32505;SDS011;18955;51.224;8.482;2023-07-09T07:44:30;9.57;;;5.70;;
32505;SDS011;18955;51.224;8.482;2023-07-09T07:46:56;21.58;;;6.35;;
32505;SDS011;18955;51.224;8.482;2023-07-09T07:49:22;14.60;;;5.97;;
32505;SDS011;18955;51.224;8.482;2023-07-09T07:51:49;10.65;;;4.97;;
32505;SDS011;18955;51.224;8.482;2023-07-09T07:54:15;15.35;;;5.25;;
32505;SDS011;18955;51.224;8.482;2023-07-09T07:56:43;11.18;;;5.57;;
32505;SDS011;18955;51.224;8.482;2023-07-09T07:59:09;10.90;;;5.70;;
32505;SDS011;18955;51.224;8.482;2023-07-09T08:01:36;11.32;;;5.50;;
32505;SDS011;18955;51.224;8.482;2023-07-09T08:04:02;11.30;;;5.45;;
32505;SDS011;18955;51.224;8.482;2023-07-09T08:06:28;13.57;;;5.75;;
32505;SDS011;18955;51.224;8.482;2023-07-09T08:08:57;15.05;;;5.57;;
32505;SDS011;18955;51.224;8.482;2023-07-09T08:11:24;13.60;;;5.25;;
32505;SDS011;18955;51.224;8.482;2023-07-09T08:13:50;9.07;;;4.03;;
32505;SDS011;18955;51.224;8.482;2023-07-09T08:16:16;9.85;;;4.72;;
32505;SDS011;18955;51.224;8.482;2023-07-09T08:18:43;9.55;;;5.35;;
32505;SDS011;18955;51.224;8.482;2023-07-09T08:21:09;14.18;;;5.50;;
32505;SDS011;18955;51.224;8.482;2023-07-09T08:23:35;12.00;;;4.93;;
32505;SDS011;18955;51.224;8.482;2023-07-09T08:26:02;13.63;;;4.90;;
32505;SDS011;18955;51.224;8.482;2023-07-09T08:28:29;8.82;;;5.07;;
32505;SDS011;18955;51.224;8.482;2023-07-09T08:30:56;11.10;;;5.03;;
32505;SDS011;18955;51.224;8.482;2023-07-09T08:35:49;8.70;;;5.05;;
32505;SDS011;18955;51.224;8.482;2023-07-09T08:38:16;7.78;;;4.80;;
32505;SDS011;18955;51.224;8.482;2023-07-09T08:40:54;7.85;;;4.70;;
32505;SDS011;18955;51.224;8.482;2023-07-09T08:46:19;11.88;;;4.72;;
32505;SDS011;18955;51.224;8.482;2023-07-09T08:48:52;10.88;;;4.97;;
32505;SDS011;18955;51.224;8.482;2023-07-09T08:51:25;10.93;;;5.00;;
32505;SDS011;18955;51.224;8.482;2023-07-09T08:53:53;8.88;;;4.78;;
32505;SDS011;18955;51.224;8.482;2023-07-09T08:56:23;9.90;;;4.20;;
32505;SDS011;18955;51.224;8.482;2023-07-09T08:58:50;6.10;;;4.13;;
32505;SDS011;18955;51.224;8.482;2023-07-09T09:01:21;7.95;;;4.43;;
32505;SDS011;18955;51.224;8.482;2023-07-09T09:03:52;9.40;;;3.70;;
32505;SDS011;18955;51.224;8.482;2023-07-09T09:06:41;8.85;;;4.38;;
32505;SDS011;18955;51.224;8.482;2023-07-09T09:09:15;9.30;;;3.70;;
32505;SDS011;18955;51.224;8.482;2023-07-09T09:11:48;13.77;;;4.35;;
32505;SDS011;18955;51.224;8.482;2023-07-09T09:14:35;10.50;;;4.25;;
32505;SDS011;18955;51.224;8.482;2023-07-09T09:17:09;10.05;;;4.20;;
32505;SDS011;18955;51.224;8.482;2023-07-09T09:19:46;8.15;;;3.72;;
32505;SDS011;18955;51.224;8.482;2023-07-09T09:22:21;7.32;;;3.65;;
32505;SDS011;18955;51.224;8.482;2023-07-09T09:25:03;7.85;;;3.47;;
32505;SDS011;18955;51.224;8.482;2023-07-09T09:27:41;9.02;;;3.42;;
32505;SDS011;18955;51.224;8.482;2023-07-09T09:30:12;10.00;;;3.58;;
32505;SDS011;18955;51.224;8.482;2023-07-09T09:32:42;8.82;;;3.75;;
32505;SDS011;18955;51.224;8.482;2023-07-09T09:35:31;6.95;;;3.38;;
32505;SDS011;18955;51.224;8.482;2023-07-09T09:37:59;9.35;;;4.53;;
32505;SDS011;18955;51.224;8.482;2023-07-09T09:40:27;8.48;;;4.30;;
32505;SDS011;18955;51.224;8.482;2023-07-09T09:42:58;6.25;;;3.30;;
32505;SDS011;18955;51.224;8.482;2023-07-09T09:45:27;8.68;;;3.38;;
32505;SDS011;18955;51.224;8.482;2023-07-09T09:47:59;7.88;;;4.22;;
32505;SDS011;18955;51.224;8.482;2023-07-09T09:50:30;10.57;;;3.90;;
32505;SDS011;18955;51.224;8.482;2023-07-09T09:52:58;5.93;;;3.45;;
32505;SDS011;18955;51.224;8.482;2023-07-09T09:55:28;8.10;;;3.50;;
32505;SDS011;18955;51.224;8.482;2023-07-09T09:57:55;9.60;;;3.58;;
32505;SDS011;18955;51.224;8.482;2023-07-09T10:00:23;7.50;;;3.50;;
32505;SDS011;18955;51.224;8.482;2023-07-09T10:02:56;7.38;;;3.78;;
32505;SDS011;18955;51.224;8.482;2023-07-09T10:05:31;9.48;;;4.53;;
32505;SDS011;18955;51.224;8.482;2023-07-09T10:11:07;7.55;;;3.90;;
32505;SDS011;18955;51.224;8.482;2023-07-09T10:13:49;7.68;;;4.22;;
32505;SDS011;18955;51.224;8.482;2023-07-09T10:16:27;7.32;;;4.03;;
32505;SDS011;18955;51.224;8.482;2023-07-09T10:27:13;8.10;;;4.38;;
32505;SDS011;18955;51.224;8.482;2023-07-09T10:33:06;9.52;;;4.57;;
32505;SDS011;18955;51.224;8.482;2023-07-09T10:41:02;8.40;;;4.25;;
32505;SDS011;18955;51.224;8.482;2023-07-09T10:46:11;8.18;;;4.30;;
32505;SDS011;18955;51.224;8.482;2023-07-09T10:48:47;9.00;;;4.82;;
32505;SDS011;18955;51.224;8.482;2023-07-09T10:53:48;9.05;;;4.75;;
32505;SDS011;18955;51.224;8.482;2023-07-09T10:56:22;9.13;;;4.32;;
32505;SDS011;18955;51.224;8.482;2023-07-09T11:01:38;9.77;;;5.05;;
32505;SDS011;18955;51.224;8.482;2023-07-09T11:07:00;9.32;;;5.05;;
32505;SDS011;18955;51.224;8.482;2023-07-09T11:09:33;7.05;;;5.07;;
32505;SDS011;18955;51.224;8.482;2023-07-09T11:12:06;9.77;;;4.53;;
32505;SDS011;18955;51.224;8.482;2023-07-09T11:14:54;8.30;;;4.70;;
32505;SDS011;18955;51.224;8.482;2023-07-09T11:17:26;7.93;;;4.60;;
32505;SDS011;18955;51.224;8.482;2023-07-09T11:19:54;10.93;;;5.20;;
32505;SDS011;18955;51.224;8.482;2023-07-09T11:22:24;11.55;;;4.75;;
32505;SDS011;18955;51.224;8.482;2023-07-09T11:27:49;8.82;;;4.18;;
32505;SDS011;18955;51.224;8.482;2023-07-09T11:32:47;10.15;;;4.50;;
32505;SDS011;18955;51.224;8.482;2023-07-09T11:35:24;9.80;;;4.50;;
32505;SDS011;18955;51.224;8.482;2023-07-09T11:37:53;7.25;;;4.15;;
32505;SDS011;18955;51.224;8.482;2023-07-09T11:40:20;17.08;;;5.40;;
32505;SDS011;18955;51.224;8.482;2023-07-09T11:42:52;10.40;;;4.43;;
32505;SDS011;18955;51.224;8.482;2023-07-09T11:45:31;11.48;;;4.70;;
32505;SDS011;18955;51.224;8.482;2023-07-09T11:48:13;10.00;;;4.80;;
32505;SDS011;18955;51.224;8.482;2023-07-09T11:50:46;13.35;;;5.15;;
32505;SDS011;18955;51.224;8.482;2023-07-09T11:53:58;14.13;;;5.22;;
32505;SDS011;18955;51.224;8.482;2023-07-09T11:56:13;9.23;;;4.72;;
32505;SDS011;18955;51.224;8.482;2023-07-09T11:58:49;8.68;;;4.30;;
32505;SDS011;18955;51.224;8.482;2023-07-09T12:01:18;10.57;;;4.70;;
32505;SDS011;18955;51.224;8.482;2023-07-09T12:03:46;8.40;;;4.47;;
32505;SDS011;18955;51.224;8.482;2023-07-09T12:08:45;10.82;;;4.47;;
32505;SDS011;18955;51.224;8.482;2023-07-09T12:11:23;8.55;;;4.30;;
32505;SDS011;18955;51.224;8.482;2023-07-09T12:16:31;10.50;;;3.80;;
32505;SDS011;18955;51.224;8.482;2023-07-09T12:19:00;11.25;;;5.05;;
32505;SDS011;18955;51.224;8.482;2023-07-09T12:21:26;11.20;;;4.88;;
32505;SDS011;18955;51.224;8.482;2023-07-09T12:23:54;13.32;;;4.82;;
32505;SDS011;18955;51.224;8.482;2023-07-09T12:26:23;10.73;;;4.45;;
32505;SDS011;18955;51.224;8.482;2023-07-09T12:28:53;10.30;;;3.63;;
32505;SDS011;18955;51.224;8.482;2023-07-09T12:31:26;8.68;;;4.05;;
32505;SDS011;18955;51.224;8.482;2023-07-09T12:33:56;12.00;;;4.65;;
32505;SDS011;18955;51.224;8.482;2023-07-09T12:36:24;10.60;;;4.28;;
32505;SDS011;18955;51.224;8.482;2023-07-09T12:38:52;9.48;;;4.32;;
32505;SDS011;18955;51.224;8.482;2023-07-09T12:41:37;11.13;;;4.30;;
32505;SDS011;18955;51.224;8.482;2023-07-09T12:44:06;9.45;;;4.50;;
32505;SDS011;18955;51.224;8.482;2023-07-09T12:46:44;9.70;;;4.28;;
32505;SDS011;18955;51.224;8.482;2023-07-09T12:49:20;8.35;;;4.28;;
32505;SDS011;18955;51.224;8.482;2023-07-09T12:51:53;7.28;;;4.32;;
32505;SDS011;18955;51.224;8.482;2023-07-09T12:54:24;11.27;;;4.10;;
32505;SDS011;18955;51.224;8.482;2023-07-09T12:56:51;9.27;;;3.90;;
32505;SDS011;18955;51.224;8.482;2023-07-09T12:59:20;6.88;;;4.05;;
32505;SDS011;18955;51.224;8.482;2023-07-09T13:01:49;9.98;;;4.20;;
32505;SDS011;18955;51.224;8.482;2023-07-09T13:04:37;8.40;;;4.30;;
32505;SDS011;18955;51.224;8.482;2023-07-09T13:07:04;8.43;;;3.90;;
32505;SDS011;18955;51.224;8.482;2023-07-09T13:09:31;18.67;;;4.50;;
32505;SDS011;18955;51.224;8.482;2023-07-09T13:11:57;10.48;;;4.50;;
32505;SDS011;18955;51.224;8.482;2023-07-09T13:14:25;7.43;;;3.50;;
32505;SDS011;18955;51.224;8.482;2023-07-09T13:17:03;9.93;;;4.82;;
32505;SDS011;18955;51.224;8.482;2023-07-09T13:19:31;10.93;;;4.13;;
32505;SDS011;18955;51.224;8.482;2023-07-09T13:21:57;6.10;;;4.05;;
32505;SDS011;18955;51.224;8.482;2023-07-09T13:24:24;10.35;;;4.60;;
32505;SDS011;18955;51.224;8.482;2023-07-09T13:26:53;16.42;;;4.30;;
32505;SDS011;18955;51.224;8.482;2023-07-09T13:29:20;7.32;;;4.10;;
32505;SDS011;18955;51.224;8.482;2023-07-09T13:31:47;7.03;;;4.43;;
32505;SDS011;18955;51.224;8.482;2023-07-09T13:34:17;17.60;;;4.22;;
32505;SDS011;18955;51.224;8.482;2023-07-09T13:36:50;235.48;;;214.90;;
32505;SDS011;18955;51.224;8.482;2023-07-09T13:39:19;274.60;;;250.18;;
32505;SDS011;18955;51.224;8.482;2023-07-09T13:41:46;200.48;;;181.95;;
32505;SDS011;18955;51.224;8.482;2023-07-09T13:44:19;9.60;;;6.47;;
32505;SDS011;18955;51.224;8.482;2023-07-09T13:46:47;41.33;;;37.55;;
32505;SDS011;18955;51.224;8.482;2023-07-09T13:49:17;7.65;;;4.90;;
32505;SDS011;18955;51.224;8.482;2023-07-09T13:51:45;15.63;;;4.55;;
32505;SDS011;18955;51.224;8.482;2023-07-09T13:54:15;10.82;;;5.63;;
32505;SDS011;18955;51.224;8.482;2023-07-09T13:56:44;7.43;;;4.57;;
32505;SDS011;18955;51.224;8.482;2023-07-09T13:59:15;10.13;;;5.97;;
32505;SDS011;18955;51.224;8.482;2023-07-09T14:01:44;17.30;;;5.90;;
32505;SDS011;18955;51.224;8.482;2023-07-09T14:04:12;16.45;;;7.90;;
32505;SDS011;18955;51.224;8.482;2023-07-09T14:06:40;11.80;;;4.30;;
32505;SDS011;18955;51.224;8.482;2023-07-09T14:09:08;6.30;;;3.63;;
32505;SDS011;18955;51.224;8.482;2023-07-09T14:12:09;18.35;;;9.80;;
32505;SDS011;18955;51.224;8.482;2023-07-09T14:14:32;6.65;;;4.53;;
32505;SDS011;18955;51.224;8.482;2023-07-09T14:16:58;7.72;;;4.03;;
32505;SDS011;18955;51.224;8.482;2023-07-09T14:19:24;15.07;;;4.72;;
32505;SDS011;18955;51.224;8.482;2023-07-09T14:21:52;9.85;;;4.38;;
32505;SDS011;18955;51.224;8.482;2023-07-09T14:26:47;10.70;;;4.68;;
32505;SDS011;18955;51.224;8.482;2023-07-09T14:29:14;8.25;;;3.95;;
32505;SDS011;18955;51.224;8.482;2023-07-09T14:31:40;6.82;;;3.90;;
32505;SDS011;18955;51.224;8.482;2023-07-09T14:34:50;5.70;;;3.80;;
32505;SDS011;18955;51.224;8.482;2023-07-09T14:37:00;8.38;;;4.38;;
32505;SDS011;18955;51.224;8.482;2023-07-09T14:39:27;9.00;;;4.53;;
32505;SDS011;18955;51.224;8.482;2023-07-09T14:41:54;9.68;;;4.65;;
32505;SDS011;18955;51.224;8.482;2023-07-09T14:46:55;9.88;;;4.38;;
32505;SDS011;18955;51.224;8.482;2023-07-09T14:49:22;10.65;;;5.40;;
32505;SDS011;18955;51.224;8.482;2023-07-09T14:51:49;9.55;;;4.13;;
32505;SDS011;18955;51.224;8.482;2023-07-09T14:56:48;14.68;;;4.65;;
32505;SDS011;18955;51.224;8.482;2023-07-09T14:59:15;11.02;;;4.47;;
32505;SDS011;18955;51.224;8.482;2023-07-09T15:01:42;11.63;;;4.93;;
32505;SDS011;18955;51.224;8.482;2023-07-09T15:04:31;5.97;;;4.45;;
32505;SDS011;18955;51.224;8.482;2023-07-09T15:06:57;8.23;;;4.35;;
32505;SDS011;18955;51.224;8.482;2023-07-09T15:09:25;10.57;;;4.32;;
32505;SDS011;18955;51.224;8.482;2023-07-09T15:11:54;8.95;;;3.83;;
32505;SDS011;18955;51.224;8.482;2023-07-09T15:14:24;8.43;;;4.55;;
32505;SDS011;18955;51.224;8.482;2023-07-09T15:16:51;10.23;;;4.25;;
32505;SDS011;18955;51.224;8.482;2023-07-09T15:19:19;9.57;;;4.28;;
32505;SDS011;18955;51.224;8.482;2023-07-09T15:21:47;9.00;;;4.03;;
32505;SDS011;18955;51.224;8.482;2023-07-09T15:24:36;10.50;;;4.15;;
32505;SDS011;18955;51.224;8.482;2023-07-09T15:27:01;9.57;;;4.43;;
32505;SDS011;18955;51.224;8.482;2023-07-09T15:29:29;10.15;;;3.80;;
32505;SDS011;18955;51.224;8.482;2023-07-09T15:31:57;10.88;;;4.10;;
32505;SDS011;18955;51.224;8.482;2023-07-09T15:34:24;9.07;;;3.95;;
32505;SDS011;18955;51.224;8.482;2023-07-09T15:36:51;6.03;;;3.97;;
32505;SDS011;18955;51.224;8.482;2023-07-09T15:39:18;9.07;;;4.03;;
32505;SDS011;18955;51.224;8.482;2023-07-09T15:41:46;8.20;;;3.47;;
32505;SDS011;18955;51.224;8.482;2023-07-09T15:46:39;5.87;;;3.67;;
32505;SDS011;18955;51.224;8.482;2023-07-09T15:49:10;6.43;;;3.97;;
32505;SDS011;18955;51.224;8.482;2023-07-09T15:51:38;7.18;;;3.83;;
32505;SDS011;18955;51.224;8.482;2023-07-09T15:54:14;8.43;;;4.20;;
32505;SDS011;18955;51.224;8.482;2023-07-09T15:56:41;8.50;;;4.28;;
32505;SDS011;18955;51.224;8.482;2023-07-09T15:59:12;9.20;;;4.10;;
32505;SDS011;18955;51.224;8.482;2023-07-09T16:01:55;6.03;;;4.00;;
32505;SDS011;18955;51.224;8.482;2023-07-09T16:04:23;6.25;;;3.75;;
32505;SDS011;18955;51.224;8.482;2023-07-09T16:06:50;11.68;;;4.38;;
32505;SDS011;18955;51.224;8.482;2023-07-09T16:11:43;8.82;;;4.03;;